Time;durP1;ratioP1;P1;durP2;ratioP2;P2;SDS_P1;SDS_P2;PMS_P1;PMS_P2;Temp;Humidity;BMP_temperature;BMP_pressure;BME280_temperature;BME280_humidity;BME280_pressure;Samples;Min_cycle;Max_cycle;Signal;HPM_P1;HPM_P2
2023/05/07 00:00:28;;;;;;;3.40;3.10;;;14.80;99.90;;;;;;6141418;23;20426;-76
2023/05/07 00:02:53;;;;;;;4.70;3.30;;;14.80;99.90;;;;;;6141039;23;20131;-75
2023/05/07 00:05:19;;;;;;;3.37;2.83;;;14.80;99.90;;;;;;6140269;23;20374;-75
2023/05/07 00:07:45;;;;;;;3.27;2.60;;;14.80;99.90;;;;;;6144297;23;20137;-73
2023/05/07 00:10:12;;;;;;;4.10;3.17;;;14.90;99.90;;;;;;6143045;23;20178;-77
2023/05/07 00:12:38;;;;;;;3.07;2.77;;;14.80;99.90;;;;;;6141708;23;20140;-73
2023/05/07 00:15:05;;;;;;;3.33;3.03;;;14.80;99.90;;;;;;6087554;23;20420;-74
2023/05/07 00:17:31;;;;;;;4.23;3.07;;;14.80;99.90;;;;;;6085499;23;20376;-76
2023/05/07 00:19:56;;;;;;;4.80;2.80;;;14.80;99.90;;;;;;6111058;23;20407;-78
2023/05/07 00:22:22;;;;;;;2.90;2.70;;;14.80;99.90;;;;;;6114625;23;20160;-75
2023/05/07 00:24:47;;;;;;;2.80;2.50;;;14.70;99.90;;;;;;6115303;23;20140;-75
2023/05/07 00:27:14;;;;;;;3.33;2.70;;;14.70;99.90;;;;;;6110156;23;20152;-74
2023/05/07 00:29:40;;;;;;;2.67;2.40;;;14.70;99.90;;;;;;6108380;23;20166;-75
2023/05/07 00:32:06;;;;;;;2.50;2.13;;;14.70;99.90;;;;;;6109100;23;20412;-74
2023/05/07 00:34:31;;;;;;;2.70;2.00;;;14.70;99.90;;;;;;6116524;23;20418;-74
2023/05/07 00:36:57;;;;;;;3.83;3.30;;;14.70;99.90;;;;;;6094334;23;20271;-74
2023/05/07 00:39:22;;;;;;;4.10;3.50;;;14.70;99.90;;;;;;6114976;23;20164;-75
2023/05/07 00:41:48;;;;;;;4.30;3.37;;;14.70;99.90;;;;;;6083272;23;20179;-73
2023/05/07 00:44:14;;;;;;;3.53;3.23;;;14.70;99.90;;;;;;6109080;23;20380;-74
2023/05/07 00:46:40;;;;;;;5.00;4.30;;;14.70;99.90;;;;;;6109132;23;20182;-74
2023/05/07 00:49:06;;;;;;;4.00;3.50;;;14.70;99.90;;;;;;6109953;23;20451;-77
2023/05/07 00:51:33;;;;;;;4.80;3.77;;;14.70;99.90;;;;;;6084750;23;20880;-73
2023/05/07 00:54:02;;;;;;;4.90;3.60;;;14.70;99.90;;;;;;6083739;23;20384;-73
2023/05/07 00:56:27;;;;;;;4.03;3.53;;;14.70;99.90;;;;;;6109790;23;20385;-75
2023/05/07 00:58:53;;;;;;;3.90;3.03;;;14.70;99.90;;;;;;6107919;23;20375;-74
2023/05/07 01:01:19;;;;;;;4.10;3.40;;;14.70;99.90;;;;;;6108403;23;20160;-73
2023/05/07 01:03:46;;;;;;;5.80;3.70;;;14.70;99.90;;;;;;6112926;23;20151;-78
2023/05/07 01:06:13;;;;;;;4.07;3.40;;;14.70;99.90;;;;;;6115632;23;20780;-75
2023/05/07 01:08:40;;;;;;;4.40;3.30;;;14.70;99.90;;;;;;6108986;23;20369;-74
2023/05/07 01:11:07;;;;;;;3.87;3.07;;;14.70;99.90;;;;;;6108781;23;20368;-74
2023/05/07 01:13:34;;;;;;;3.80;3.17;;;14.70;99.90;;;;;;6059339;23;1149707;-72
2023/05/07 01:16:01;;;;;;;4.00;3.07;;;14.70;99.90;;;;;;6108423;23;20162;-74
2023/05/07 01:18:29;;;;;;;6.07;2.90;;;14.60;99.90;;;;;;6085324;23;20397;-74
2023/05/07 01:20:58;;;;;;;5.17;3.57;;;14.60;99.90;;;;;;6085195;23;20428;-75
2023/05/07 01:23:27;;;;;;;3.30;3.00;;;14.60;99.90;;;;;;6084450;23;20383;-74
2023/05/07 01:25:53;;;;;;;4.10;3.43;;;14.60;99.90;;;;;;6108166;23;20369;-74
2023/05/07 01:28:22;;;;;;;3.17;2.80;;;14.60;99.90;;;;;;6109010;23;20430;-74
2023/05/07 01:30:55;;;;;;;4.43;3.00;;;14.60;99.90;;;;;;6086387;23;20436;-74
2023/05/07 01:33:22;;;;;;;3.77;3.37;;;14.60;99.90;;;;;;6113798;23;20175;-76
2023/05/07 01:35:51;;;;;;;3.20;2.90;;;14.60;99.90;;;;;;6114063;23;20364;-73
2023/05/07 01:38:18;;;;;;;3.17;2.87;;;14.60;99.90;;;;;;6113708;23;20396;-73
2023/05/07 01:40:45;;;;;;;3.97;2.43;;;14.50;99.90;;;;;;6114010;23;20458;-74
2023/05/07 01:43:11;;;;;;;3.70;2.90;;;14.50;99.90;;;;;;6086337;23;20381;-73
2023/05/07 01:45:38;;;;;;;4.20;3.30;;;14.50;99.90;;;;;;6084335;23;20376;-73
2023/05/07 01:48:05;;;;;;;3.57;2.80;;;14.50;99.90;;;;;;6084797;23;20436;-74
2023/05/07 01:50:33;;;;;;;4.23;2.73;;;14.50;99.90;;;;;;6086779;23;20411;-73
2023/05/07 01:52:59;;;;;;;4.93;2.70;;;14.40;99.90;;;;;;6084109;23;20393;-73
2023/05/07 01:55:25;;;;;;;3.30;3.00;;;14.40;99.90;;;;;;6112829;23;20396;-73
2023/05/07 01:57:50;;;;;;;4.57;2.93;;;14.40;99.90;;;;;;6107443;23;20403;-73
2023/05/07 02:00:17;;;;;;;3.80;2.50;;;14.30;99.90;;;;;;6084581;23;20817;-74
2023/05/07 02:02:43;;;;;;;3.37;2.67;;;14.30;99.90;;;;;;6085203;23;20143;-73
2023/05/07 02:05:20;;;;;;;3.43;2.33;;;14.30;99.90;;;;;;6107204;23;20379;-75
2023/05/07 02:07:51;;;;;;;4.23;2.67;;;14.20;99.90;;;;;;6108265;23;20405;-73
2023/05/07 02:10:17;;;;;;;3.83;2.67;;;14.20;99.90;;;;;;6107654;23;20392;-74
2023/05/07 02:12:43;;;;;;;4.50;3.13;;;14.20;99.90;;;;;;6110265;23;20366;-73
2023/05/07 02:15:09;;;;;;;4.30;3.03;;;14.10;99.90;;;;;;6158341;23;20190;-74
2023/05/07 02:17:36;;;;;;;3.70;3.10;;;14.10;99.90;;;;;;6137042;23;20146;-74
2023/05/07 02:20:03;;;;;;;5.60;2.90;;;14.00;99.90;;;;;;6138230;23;20387;-74
2023/05/07 02:22:29;;;;;;;4.83;3.07;;;14.00;99.90;;;;;;6089152;23;20383;-74
2023/05/07 02:24:54;;;;;;;4.30;3.90;;;14.00;99.90;;;;;;6137013;23;20394;-73
2023/05/07 02:27:21;;;;;;;3.50;2.93;;;13.90;99.90;;;;;;6135084;23;20473;-75
2023/05/07 02:29:46;;;;;;;4.57;3.13;;;13.90;99.90;;;;;;6090462;23;20414;-73
2023/05/07 02:32:12;;;;;;;3.57;3.10;;;13.80;99.90;;;;;;6139580;23;20146;-75
2023/05/07 02:34:37;;;;;;;3.53;2.87;;;13.80;99.90;;;;;;6111862;23;20140;-73
2023/05/07 02:37:03;;;;;;;3.63;2.70;;;13.80;99.90;;;;;;6115734;23;20163;-73
2023/05/07 02:39:29;;;;;;;3.20;2.40;;;13.80;99.90;;;;;;6138232;23;20170;-74
2023/05/07 02:41:55;;;;;;;5.17;3.20;;;13.70;99.90;;;;;;6135908;23;20448;-74
2023/05/07 02:44:21;;;;;;;4.07;2.90;;;13.70;99.90;;;;;;6137682;23;20361;-72
2023/05/07 02:46:49;;;;;;;3.73;3.40;;;13.80;99.90;;;;;;6135890;23;20162;-74
2023/05/07 02:49:14;;;;;;;4.80;3.60;;;13.80;99.90;;;;;;6140871;23;20668;-72
2023/05/07 02:51:40;;;;;;;3.87;3.47;;;13.80;99.90;;;;;;6119225;23;20149;-74
2023/05/07 02:54:11;;;;;;;3.50;3.00;;;13.80;99.90;;;;;;6117959;23;20530;-74
2023/05/07 02:56:36;;;;;;;4.10;3.53;;;13.90;99.90;;;;;;6138679;23;20404;-73
2023/05/07 02:59:02;;;;;;;4.77;3.70;;;13.90;99.90;;;;;;6114595;23;20173;-73
2023/05/07 03:01:32;;;;;;;5.43;3.30;;;13.90;99.90;;;;;;6139406;23;20193;-74
2023/05/07 03:04:02;;;;;;;4.00;3.23;;;13.90;99.90;;;;;;6115736;23;20378;-72
2023/05/07 03:06:28;;;;;;;3.37;2.80;;;14.00;99.90;;;;;;6136990;23;20366;-73
2023/05/07 03:08:53;;;;;;;4.70;2.90;;;14.00;99.90;;;;;;6110482;23;20473;-73
2023/05/07 03:11:19;;;;;;;4.40;2.53;;;14.00;99.90;;;;;;6136626;23;20168;-74
2023/05/07 03:13:45;;;;;;;5.00;3.33;;;14.00;99.90;;;;;;6099586;23;20522;-72
2023/05/07 03:16:11;;;;;;;5.00;3.13;;;14.00;99.90;;;;;;6082281;23;20402;-74
2023/05/07 03:18:37;;;;;;;4.27;3.33;;;13.90;99.90;;;;;;6107489;23;20380;-74
2023/05/07 03:21:04;;;;;;;3.40;2.90;;;13.90;99.90;;;;;;6106938;23;20173;-73
2023/05/07 03:23:29;;;;;;;3.90;3.33;;;13.90;99.90;;;;;;6107001;23;20181;-73
2023/05/07 03:25:55;;;;;;;2.80;2.60;;;13.80;99.90;;;;;;6103745;23;20782;-72
2023/05/07 03:28:20;;;;;;;4.30;3.27;;;13.80;99.90;;;;;;6107291;23;20159;-71
2023/05/07 03:30:51;;;;;;;4.20;2.90;;;13.80;99.90;;;;;;6060970;23;20499;-73
2023/05/07 03:33:17;;;;;;;4.40;3.47;;;13.70;99.90;;;;;;6105989;23;20370;-72
2023/05/07 03:35:43;;;;;;;3.03;2.70;;;13.70;99.90;;;;;;6114033;23;20200;-74
2023/05/07 03:38:09;;;;;;;4.63;3.17;;;13.60;99.90;;;;;;6115905;23;20149;-73
2023/05/07 03:40:36;;;;;;;4.00;3.00;;;13.60;99.90;;;;;;6112111;23;20422;-73
2023/05/07 03:43:03;;;;;;;3.97;3.00;;;13.60;99.90;;;;;;6116231;23;20441;-74
2023/05/07 03:45:31;;;;;;;5.03;3.57;;;13.60;99.90;;;;;;6114351;23;20439;-74
2023/05/07 03:48:19;;;;;;;5.73;3.80;;;13.70;99.90;;;;;;6106607;23;20406;-72
2023/05/07 03:50:47;;;;;;;3.73;2.77;;;13.60;99.90;;;;;;6081253;23;20430;-73
2023/05/07 03:53:15;;;;;;;4.43;2.63;;;13.70;99.90;;;;;;6104844;23;20703;-72
2023/05/07 03:55:40;;;;;;;3.17;2.90;;;13.60;99.90;;;;;;6104367;23;20380;-72
2023/05/07 03:58:06;;;;;;;3.43;2.50;;;13.70;99.90;;;;;;6102854;23;20402;-73
2023/05/07 04:00:36;;;;;;;2.90;2.30;;;13.70;99.90;;;;;;6102931;23;20185;-72
2023/05/07 04:03:06;;;;;;;2.93;2.43;;;13.70;99.90;;;;;;6104902;23;20412;-73
2023/05/07 04:05:31;;;;;;;4.40;2.23;;;13.70;99.90;;;;;;6105467;23;20433;-73
2023/05/07 04:08:01;;;;;;;2.97;2.67;;;13.70;99.90;;;;;;6107505;23;20148;-72
2023/05/07 04:10:34;;;;;;;2.60;2.40;;;13.70;99.90;;;;;;6106751;23;20411;-74
2023/05/07 04:13:05;;;;;;;3.43;2.40;;;13.70;99.90;;;;;;6083978;23;20694;-72
2023/05/07 04:15:31;;;;;;;3.20;2.47;;;13.80;99.90;;;;;;6110073;23;20386;-74
2023/05/07 04:17:57;;;;;;;3.03;2.73;;;13.80;99.90;;;;;;6134935;23;20362;-73
2023/05/07 04:20:24;;;;;;;4.03;3.10;;;13.90;99.90;;;;;;6110625;23;20195;-74
2023/05/07 04:22:56;;;;;;;2.33;2.10;;;13.90;99.90;;;;;;6111903;23;20650;-74
2023/05/07 04:25:26;;;;;;;4.30;3.10;;;14.10;99.90;;;;;;6136366;23;20366;-73
2023/05/07 04:27:52;;;;;;;2.83;2.37;;;14.10;99.90;;;;;;6135974;23;20421;-74
2023/05/07 04:30:18;;;;;;;3.20;2.77;;;14.20;99.90;;;;;;6153517;23;20400;-72
2023/05/07 04:32:44;;;;;;;3.80;3.40;;;14.20;99.90;;;;;;6139311;23;20145;-74
2023/05/07 04:35:11;;;;;;;3.60;2.40;;;14.30;99.90;;;;;;6168797;23;20142;-72
2023/05/07 04:37:37;;;;;;;2.77;2.23;;;14.40;99.90;;;;;;6143873;23;20381;-72
2023/05/07 04:40:04;;;;;;;2.60;2.33;;;14.40;99.90;;;;;;6139562;23;20399;-74
2023/05/07 04:42:31;;;;;;;4.90;2.50;;;14.40;99.90;;;;;;6115349;23;20479;-71
2023/05/07 04:44:57;;;;;;;3.40;2.83;;;14.50;99.90;;;;;;6139466;23;20399;-72
2023/05/07 04:47:23;;;;;;;2.83;2.40;;;14.50;99.90;;;;;;6138221;23;20378;-73
2023/05/07 04:49:50;;;;;;;5.70;2.33;;;14.60;99.90;;;;;;6166484;23;20390;-72
2023/05/07 04:52:16;;;;;;;3.23;2.93;;;14.60;99.90;;;;;;6165653;23;20366;-72
2023/05/07 04:54:42;;;;;;;2.43;2.23;;;14.70;99.90;;;;;;6138085;23;20458;-72
2023/05/07 04:57:08;;;;;;;2.30;2.10;;;14.70;99.90;;;;;;6138100;23;20468;-72
2023/05/07 04:59:34;;;;;;;3.43;2.20;;;14.80;99.90;;;;;;6138465;23;20201;-74
2023/05/07 05:02:00;;;;;;;3.60;2.87;;;14.90;99.90;;;;;;6138236;23;20443;-72
2023/05/07 05:04:25;;;;;;;4.90;2.63;;;14.90;99.90;;;;;;6138591;23;20202;-73
2023/05/07 05:06:51;;;;;;;2.57;2.20;;;14.90;99.90;;;;;;6120962;23;20152;-74
2023/05/07 05:09:17;;;;;;;4.00;2.13;;;14.90;99.90;;;;;;6177260;23;20387;-74
2023/05/07 05:11:44;;;;;;;2.67;2.20;;;15.00;99.90;;;;;;6174742;23;20136;-72
2023/05/07 05:14:09;;;;;;;2.40;1.80;;;15.00;99.90;;;;;;6163720;23;20421;-72
2023/05/07 05:16:35;;;;;;;2.60;2.40;;;15.10;99.90;;;;;;6164771;23;20165;-72
2023/05/07 05:19:01;;;;;;;3.30;2.30;;;15.10;99.90;;;;;;6136181;23;20174;-72
2023/05/07 05:21:28;;;;;;;2.73;2.53;;;15.10;99.90;;;;;;6138205;23;20183;-74
2023/05/07 05:23:59;;;;;;;3.77;2.30;;;15.20;99.90;;;;;;6163340;23;20375;-73
2023/05/07 05:26:25;;;;;;;3.17;2.80;;;15.30;99.90;;;;;;6146208;23;20436;-72
2023/05/07 05:28:51;;;;;;;2.60;1.80;;;15.30;99.90;;;;;;6138071;23;20146;-73
2023/05/07 05:31:19;;;;;;;2.53;2.33;;;15.40;99.90;;;;;;6168219;23;20162;-72
2023/05/07 05:33:46;;;;;;;3.00;2.40;;;15.40;99.90;;;;;;6165296;23;20355;-74
2023/05/07 05:36:12;;;;;;;3.73;1.80;;;15.40;99.90;;;;;;6139505;23;20745;-72
2023/05/07 05:38:39;;;;;;;4.33;2.63;;;15.50;99.90;;;;;;6138717;23;20181;-73
2023/05/07 05:41:05;;;;;;;1.80;1.70;;;15.50;99.90;;;;;;6138208;23;20677;-72
2023/05/07 05:43:31;;;;;;;4.30;1.97;;;15.50;99.90;;;;;;6166063;23;20360;-72
2023/05/07 05:45:58;;;;;;;2.17;1.97;;;15.60;99.90;;;;;;6138657;23;20144;-72
2023/05/07 05:48:24;;;;;;;2.60;2.07;;;15.60;99.90;;;;;;6166516;23;20446;-74
2023/05/07 05:50:50;;;;;;;2.80;2.07;;;15.60;99.90;;;;;;6114934;23;20415;-71
2023/05/07 05:53:18;;;;;;;2.60;1.60;;;15.60;99.90;;;;;;6163945;23;20143;-72
2023/05/07 05:55:44;;;;;;;1.70;1.50;;;15.70;99.90;;;;;;6138627;23;20367;-71
2023/05/07 05:58:10;;;;;;;1.60;1.30;;;15.80;99.90;;;;;;6139750;23;20227;-73
2023/05/07 06:00:42;;;;;;;2.10;1.87;;;15.80;99.90;;;;;;6163986;23;20477;-76
2023/05/07 06:03:07;;;;;;;3.00;2.27;;;15.90;99.90;;;;;;6129349;23;20390;-73
2023/05/07 06:05:34;;;;;;;1.90;1.57;;;16.00;99.90;;;;;;6142711;23;20370;-73
2023/05/07 06:08:00;;;;;;;2.20;2.00;;;16.10;99.90;;;;;;6139712;23;20414;-73
2023/05/07 06:10:30;;;;;;;2.27;2.00;;;16.20;99.90;;;;;;6139312;23;20469;-72
2023/05/07 06:12:56;;;;;;;1.73;1.53;;;16.30;99.90;;;;;;6164573;23;20412;-73
2023/05/07 06:15:22;;;;;;;2.47;1.53;;;16.40;99.90;;;;;;6166003;23;20408;-77
2023/05/07 06:17:49;;;;;;;2.43;2.23;;;16.40;99.90;;;;;;6118437;23;20147;-73
2023/05/07 06:20:14;;;;;;;1.90;1.70;;;16.60;99.90;;;;;;6141697;23;20678;-74
2023/05/07 06:22:40;;;;;;;3.63;2.03;;;16.70;99.90;;;;;;6144555;23;20415;-74
2023/05/07 06:25:08;;;;;;;1.83;1.60;;;16.80;99.90;;;;;;6138856;23;20450;-73
2023/05/07 06:27:34;;;;;;;2.90;1.90;;;16.90;99.90;;;;;;6164780;23;20625;-72
2023/05/07 06:30:00;;;;;;;2.33;1.90;;;17.00;99.90;;;;;;6165097;23;20406;-72
2023/05/07 06:32:25;;;;;;;2.53;1.77;;;17.10;99.90;;;;;;6166494;23;20136;-72
2023/05/07 06:34:51;;;;;;;3.00;1.93;;;17.30;99.90;;;;;;6163430;23;20370;-73
2023/05/07 06:37:18;;;;;;;1.73;1.40;;;17.40;99.90;;;;;;6108417;23;20454;-73
2023/05/07 06:39:52;;;;;;;3.60;1.93;;;17.50;99.90;;;;;;6105967;23;20434;-73
2023/05/07 06:42:18;;;;;;;2.30;1.97;;;17.50;99.90;;;;;;6107734;23;20458;-72
2023/05/07 06:44:48;;;;;;;3.33;2.00;;;17.60;99.90;;;;;;6107663;23;20172;-73
2023/05/07 06:47:16;;;;;;;2.90;2.07;;;17.60;99.90;;;;;;6132946;23;20380;-72
2023/05/07 06:49:44;;;;;;;3.10;2.63;;;17.80;99.90;;;;;;6109124;23;20388;-73
2023/05/07 06:52:13;;;;;;;2.43;2.00;;;17.90;99.90;;;;;;6108377;23;20454;-73
2023/05/07 06:54:38;;;;;;;2.17;1.97;;;18.00;99.90;;;;;;6110076;23;20378;-73
2023/05/07 06:57:04;;;;;;;2.37;2.17;;;18.00;99.90;;;;;;6109411;23;20579;-73
2023/05/07 06:59:30;;;;;;;2.93;1.97;;;18.10;99.90;;;;;;6109189;23;20180;-74
2023/05/07 07:01:56;;;;;;;1.67;1.57;;;18.30;99.90;;;;;;6132829;23;20411;-72
2023/05/07 07:04:24;;;;;;;2.00;1.80;;;18.60;99.90;;;;;;6108114;23;20148;-72
2023/05/07 07:06:57;;;;;;;5.13;2.37;;;18.80;99.90;;;;;;6108540;23;20174;-71
2023/05/07 07:09:23;;;;;;;3.30;2.00;;;18.90;98.60;;;;;;6163077;23;20393;-75
2023/05/07 07:11:49;;;;;;;3.50;2.20;;;18.90;99.20;;;;;;6168523;23;20174;-73
2023/05/07 07:14:14;;;;;;;2.30;2.03;;;18.90;98.00;;;;;;6146260;23;20236;-74
2023/05/07 07:16:46;;;;;;;4.13;2.17;;;18.80;99.70;;;;;;6140892;23;20163;-73
2023/05/07 07:19:15;;;;;;;2.93;1.80;;;18.80;99.30;;;;;;6167095;23;20805;-75
2023/05/07 07:21:42;;;;;;;3.00;2.30;;;18.90;98.80;;;;;;6144690;23;20466;-73
2023/05/07 07:24:12;;;;;;;2.70;2.33;;;18.90;97.80;;;;;;6179271;23;20393;-72
2023/05/07 07:26:39;;;;;;;3.73;2.13;;;18.90;97.40;;;;;;6151731;23;20399;-73
2023/05/07 07:29:06;;;;;;;2.40;1.80;;;18.80;96.80;;;;;;6117600;23;20396;-74
2023/05/07 07:31:32;;;;;;;2.07;1.77;;;18.90;98.30;;;;;;6120547;23;20389;-77
2023/05/07 07:33:58;;;;;;;2.93;2.20;;;19.00;98.70;;;;;;6140701;23;20371;-72
2023/05/07 07:36:25;;;;;;;7.97;1.93;;;19.10;98.50;;;;;;6141421;23;20162;-73
2023/05/07 07:38:51;;;;;;;1.53;1.43;;;19.30;98.30;;;;;;6140335;23;20385;-74
2023/05/07 07:41:17;;;;;;;4.00;2.53;;;19.50;97.70;;;;;;6141512;23;20426;-77
2023/05/07 07:43:43;;;;;;;3.17;2.20;;;19.70;95.10;;;;;;6121305;23;20378;-76
2023/05/07 07:46:09;;;;;;;3.00;2.27;;;19.80;93.80;;;;;;6145544;23;20370;-75
2023/05/07 07:48:35;;;;;;;2.80;2.20;;;19.90;91.70;;;;;;6145315;23;20444;-74
2023/05/07 07:51:00;;;;;;;4.10;3.07;;;19.80;91.40;;;;;;6170919;23;20583;-75
2023/05/07 07:53:27;;;;;;;2.50;2.23;;;19.70;92.60;;;;;;6167635;23;20430;-74
2023/05/07 07:55:52;;;;;;;2.70;1.93;;;19.80;93.70;;;;;;6146835;23;20389;-75
2023/05/07 07:58:21;;;;;;;6.43;2.50;;;20.00;93.10;;;;;;6145916;23;20214;-76
2023/05/07 08:00:47;;;;;;;2.60;1.70;;;20.20;91.20;;;;;;6117759;23;20422;-75
2023/05/07 08:03:16;;;;;;;5.23;2.47;;;20.30;90.30;;;;;;6143139;23;20374;-74
2023/05/07 08:05:45;;;;;;;2.37;1.97;;;20.40;88.20;;;;;;6139825;23;20844;-73
2023/05/07 08:08:10;;;;;;;2.20;2.00;;;20.50;81.80;;;;;;6121602;23;20387;-74
2023/05/07 08:10:39;;;;;;;3.67;1.90;;;20.50;83.00;;;;;;6168353;23;20182;-75
2023/05/07 08:13:09;;;;;;;4.27;2.57;;;20.60;84.20;;;;;;6118988;23;20506;-73
2023/05/07 08:15:37;;;;;;;4.13;2.10;;;20.60;82.70;;;;;;6144689;23;20451;-76
2023/05/07 08:18:03;;;;;;;2.90;2.10;;;20.60;83.60;;;;;;6148844;23;20375;-76
2023/05/07 08:20:30;;;;;;;2.77;1.80;;;20.70;83.50;;;;;;6151287;23;20175;-73
2023/05/07 08:22:56;;;;;;;2.50;1.87;;;20.80;79.80;;;;;;6150805;23;20348;-75
2023/05/07 08:25:23;;;;;;;1.90;1.40;;;20.70;81.20;;;;;;6150532;23;20367;-76
2023/05/07 08:27:48;;;;;;;2.10;1.83;;;20.80;82.60;;;;;;6126311;23;20497;-74
2023/05/07 08:30:15;;;;;;;4.37;2.23;;;20.80;81.10;;;;;;6143300;23;20380;-76
2023/05/07 08:32:41;;;;;;;2.77;1.77;;;20.80;80.10;;;;;;6141073;23;20653;-74
2023/05/07 08:35:07;;;;;;;1.80;1.40;;;20.90;82.30;;;;;;6166020;23;20367;-75
2023/05/07 08:37:33;;;;;;;2.63;1.97;;;21.10;79.60;;;;;;6141645;23;20132;-77
2023/05/07 08:40:00;;;;;;;2.03;1.50;;;21.20;78.20;;;;;;6140795;23;20405;-74
2023/05/07 08:42:35;;;;;;;2.23;1.63;;;21.30;78.40;;;;;;6141040;23;20411;-76
2023/05/07 08:45:05;;;;;;;2.47;2.10;;;21.50;77.00;;;;;;6167114;23;20383;-74
2023/05/07 08:47:40;;;;;;;2.70;2.03;;;21.60;74.30;;;;;;6148010;23;20371;-74
2023/05/07 08:50:06;;;;;;;2.20;2.00;;;21.60;73.70;;;;;;6119429;23;20431;-75
2023/05/07 08:52:32;;;;;;;3.03;1.80;;;21.60;73.50;;;;;;6142300;23;20401;-75
2023/05/07 08:55:00;;;;;;;2.20;1.77;;;21.90;70.90;;;;;;6141554;23;20359;-74
2023/05/07 08:57:25;;;;;;;2.20;1.90;;;21.80;70.60;;;;;;6169149;23;20811;-74
2023/05/07 08:59:52;;;;;;;1.97;1.73;;;21.70;71.30;;;;;;6147174;23;20395;-75
2023/05/07 09:02:18;;;;;;;2.47;2.00;;;21.90;71.20;;;;;;6143481;23;20479;-75
2023/05/07 09:04:44;;;;;;;2.10;1.80;;;22.00;67.40;;;;;;6143221;23;20206;-75
2023/05/07 09:07:10;;;;;;;3.20;2.50;;;21.80;68.30;;;;;;6141878;23;20375;-75
2023/05/07 09:09:40;;;;;;;2.50;2.00;;;21.80;68.20;;;;;;6118971;23;20399;-73
2023/05/07 09:12:07;;;;;;;2.70;2.10;;;21.80;68.50;;;;;;6120056;23;20481;-75
2023/05/07 09:14:34;;;;;;;3.23;2.50;;;21.70;70.10;;;;;;6143007;23;20493;-77
2023/05/07 09:17:01;;;;;;;2.97;2.10;;;21.60;68.80;;;;;;6143218;23;20446;-76
2023/05/07 09:19:27;;;;;;;3.37;2.10;;;21.50;69.70;;;;;;6141649;23;20441;-75
2023/05/07 09:22:02;;;;;;;2.20;2.00;;;21.30;72.50;;;;;;6143884;23;20638;-76
2023/05/07 09:24:37;;;;;;;1.70;1.60;;;21.40;72.10;;;;;;6121247;23;20378;-74
2023/05/07 09:27:05;;;;;;;1.90;1.67;;;21.60;71.90;;;;;;6120051;23;20402;-78
2023/05/07 09:29:37;;;;;;;2.83;2.20;;;21.90;68.70;;;;;;6144416;23;20449;-74
2023/05/07 09:32:06;;;;;;;2.20;1.90;;;22.00;66.50;;;;;;6119149;23;20418;-75
2023/05/07 09:34:32;;;;;;;3.20;1.87;;;22.00;67.10;;;;;;6128571;23;20426;-75
2023/05/07 09:37:01;;;;;;;1.87;1.67;;;22.10;66.90;;;;;;6153507;23;20371;-74
2023/05/07 09:39:59;;;;;;;4.53;1.90;;;22.30;66.00;;;;;;6144198;23;20403;-74
2023/05/07 09:42:27;;;;;;;2.13;1.90;;;22.30;64.00;;;;;;6148056;23;20502;-76
2023/05/07 09:44:55;;;;;;;2.87;1.80;;;22.30;63.00;;;;;;6124498;23;20394;-76
2023/05/07 09:47:25;;;;;;;4.87;2.00;;;22.30;60.70;;;;;;6149974;23;20378;-76
2023/05/07 09:49:57;;;;;;;1.80;1.67;;;22.20;60.70;;;;;;6118992;23;20406;-75
2023/05/07 09:52:24;;;;;;;2.30;1.70;;;22.30;61.70;;;;;;6143299;23;20396;-76
2023/05/07 09:54:54;;;;;;;1.60;1.30;;;22.30;61.80;;;;;;6142257;23;20421;-75
2023/05/07 09:57:25;;;;;;;2.80;1.60;;;22.30;61.50;;;;;;6142645;23;20502;-77
2023/05/07 09:59:57;;;;;;;2.20;1.80;;;22.40;61.30;;;;;;6118994;23;20666;-76
2023/05/07 10:02:27;;;;;;;2.07;1.87;;;22.50;60.80;;;;;;6119666;23;20867;-77
2023/05/07 10:04:54;;;;;;;3.00;1.77;;;22.50;61.20;;;;;;6142989;23;20363;-75
2023/05/07 10:07:26;;;;;;;3.67;2.30;;;22.40;60.20;;;;;;6119406;23;20390;-76
2023/05/07 10:09:55;;;;;;;3.03;2.03;;;22.30;61.00;;;;;;6141488;23;20470;-76
2023/05/07 10:12:37;;;;;;;3.50;2.93;;;22.20;62.20;;;;;;6143223;23;20374;-76
2023/05/07 10:15:06;;;;;;;1.80;1.60;;;22.30;61.70;;;;;;6120049;23;20426;-75
2023/05/07 10:17:35;;;;;;;2.27;2.07;;;22.30;61.60;;;;;;6141895;23;20804;-76
2023/05/07 10:20:00;;;;;;;3.07;2.20;;;22.30;61.60;;;;;;6142210;23;20753;-76
2023/05/07 10:22:28;;;;;;;2.67;2.20;;;22.40;60.90;;;;;;6169800;23;20430;-76
2023/05/07 10:24:58;;;;;;;3.23;2.17;;;22.60;60.10;;;;;;6143738;23;20163;-75
2023/05/07 10:27:24;;;;;;;4.00;1.83;;;22.70;59.20;;;;;;6144348;23;20397;-77
2023/05/07 10:30:25;;;;;;;3.20;1.93;;;22.80;59.30;;;;;;6143092;23;20398;-75
2023/05/07 10:32:53;;;;;;;2.10;1.70;;;22.80;58.80;;;;;;6172227;23;20367;-76
2023/05/07 10:35:31;;;;;;;4.20;1.80;;;22.80;58.90;;;;;;6120352;23;20355;-76
2023/05/07 10:37:58;;;;;;;2.80;1.87;;;22.90;58.00;;;;;;6143875;23;20433;-76
2023/05/07 10:40:26;;;;;;;2.30;1.77;;;22.90;58.10;;;;;;6142629;23;20426;-75
2023/05/07 10:42:59;;;;;;;1.70;1.50;;;22.80;57.60;;;;;;6119762;23;20364;-76
2023/05/07 10:45:27;;;;;;;2.00;1.40;;;22.90;57.30;;;;;;6126531;23;20446;-77
2023/05/07 10:48:15;;;;;;;2.50;2.00;;;23.00;57.30;;;;;;6144539;23;20431;-76
2023/05/07 10:50:46;;;;;;;2.43;2.10;;;23.10;57.10;;;;;;6144148;23;20491;-77
2023/05/07 10:53:17;;;;;;;2.10;1.90;;;23.00;55.90;;;;;;6144426;23;20372;-74
2023/05/07 10:55:52;;;;;;;2.73;2.07;;;23.00;55.60;;;;;;6169027;23;20374;-76
2023/05/07 10:58:21;;;;;;;4.00;2.00;;;23.00;55.80;;;;;;6144081;23;20687;-76
2023/05/07 11:00:49;;;;;;;2.83;1.80;;;23.40;55.80;;;;;;6145432;23;20430;-76
2023/05/07 11:03:26;;;;;;;2.17;1.73;;;23.50;54.90;;;;;;6123847;23;20409;-78
2023/05/07 11:06:14;;;;;;;3.43;2.00;;;23.80;55.10;;;;;;6147140;23;20375;-76
2023/05/07 11:09:02;;;;;;;2.00;1.60;;;24.00;54.00;;;;;;6126847;23;20399;-77
2023/05/07 11:11:52;;;;;;;3.10;2.37;;;24.20;54.40;;;;;;6148194;23;20809;-75
2023/05/07 11:14:53;;;;;;;2.17;1.97;;;24.60;54.10;;;;;;6112753;23;20430;-73
2023/05/07 11:17:25;;;;;;;1.90;1.70;;;25.00;53.20;;;;;;6115314;23;20372;-74
2023/05/07 11:19:58;;;;;;;2.50;1.60;;;25.40;52.90;;;;;;6091275;23;20426;-74
2023/05/07 11:22:35;;;;;;;2.27;1.70;;;25.70;52.30;;;;;;6117347;23;20475;-75
2023/05/07 11:25:19;;;;;;;3.33;1.40;;;26.10;51.40;;;;;;6116044;23;20368;-76
2023/05/07 11:27:49;;;;;;;2.00;1.57;;;26.10;49.70;;;;;;6115440;23;20426;-77
2023/05/07 11:30:18;;;;;;;1.83;1.40;;;26.20;49.20;;;;;;6119311;23;20399;-76
2023/05/07 11:32:47;;;;;;;2.43;1.57;;;26.10;46.50;;;;;;6102857;23;20367;-73
2023/05/07 11:35:16;;;;;;;2.63;1.47;;;25.90;45.90;;;;;;6100142;23;20375;-76
2023/05/07 11:37:45;;;;;;;1.90;1.60;;;25.70;46.20;;;;;;6114359;23;20460;-76
2023/05/07 11:40:13;;;;;;;1.93;1.73;;;25.80;44.10;;;;;;6114831;23;20399;-77
2023/05/07 11:42:44;;;;;;;2.43;1.87;;;25.60;45.00;;;;;;6139996;23;20403;-76
2023/05/07 11:45:10;;;;;;;2.63;1.63;;;25.50;45.50;;;;;;6115348;23;20384;-77
2023/05/07 11:47:35;;;;;;;1.47;1.37;;;25.40;46.10;;;;;;6113852;23;20797;-74
2023/05/07 11:50:07;;;;;;;2.00;1.40;;;25.40;46.60;;;;;;6115769;23;20430;-76
2023/05/07 11:52:33;;;;;;;1.73;1.40;;;25.40;45.80;;;;;;6115666;23;20159;-76
2023/05/07 11:55:00;;;;;;;2.70;1.47;;;25.40;46.00;;;;;;6115814;23;20375;-78
2023/05/07 11:57:26;;;;;;;3.50;1.87;;;25.20;46.30;;;;;;6115734;23;20156;-76
2023/05/07 11:59:59;;;;;;;2.43;1.80;;;25.20;46.00;;;;;;6117495;23;20829;-77
2023/05/07 12:02:25;;;;;;;4.30;1.90;;;25.00;46.60;;;;;;6092213;23;20701;-77
2023/05/07 12:04:52;;;;;;;1.87;1.50;;;24.70;46.50;;;;;;6116206;23;20478;-75
2023/05/07 12:07:20;;;;;;;1.47;1.30;;;24.60;46.80;;;;;;6116145;23;20419;-76
2023/05/07 12:09:47;;;;;;;1.70;1.60;;;24.60;46.70;;;;;;6092221;23;20396;-76
2023/05/07 12:12:17;;;;;;;3.40;1.87;;;24.60;46.80;;;;;;6117729;23;20356;-76
2023/05/07 12:14:44;;;;;;;2.13;1.93;;;24.60;47.20;;;;;;6166503;23;20418;-77
2023/05/07 12:17:11;;;;;;;3.37;1.93;;;24.60;47.90;;;;;;6147112;23;20367;-76
2023/05/07 12:19:39;;;;;;;1.77;1.67;;;24.40;48.50;;;;;;6147581;23;20405;-76
2023/05/07 12:22:07;;;;;;;2.20;1.67;;;24.40;48.60;;;;;;6150821;23;20418;-77
2023/05/07 12:24:46;;;;;;;1.83;1.50;;;24.70;48.90;;;;;;6126318;23;20410;-79
2023/05/07 12:27:13;;;;;;;1.30;1.20;;;24.80;48.00;;;;;;6124648;23;20405;-76
2023/05/07 12:29:40;;;;;;;1.40;1.30;;;25.00;48.10;;;;;;6125527;23;20420;-79
2023/05/07 12:32:12;;;;;;;2.73;1.30;;;25.20;48.10;;;;;;6127697;23;20406;-78
2023/05/07 12:34:39;;;;;;;2.40;1.83;;;25.30;47.80;;;;;;6146779;23;20366;-79
2023/05/07 12:37:04;;;;;;;2.77;1.50;;;25.50;46.60;;;;;;6147846;23;20445;-76
2023/05/07 12:39:32;;;;;;;1.70;1.50;;;25.30;47.10;;;;;;6152642;23;20406;-79
2023/05/07 12:41:59;;;;;;;2.30;1.87;;;25.10;47.70;;;;;;6156787;23;20159;-79
2023/05/07 12:44:32;;;;;;;2.60;1.60;;;24.80;48.10;;;;;;6130703;23;20377;-78
2023/05/07 12:47:01;;;;;;;3.80;2.43;;;24.80;48.30;;;;;;6126614;23;20375;-77
2023/05/07 12:49:27;;;;;;;4.80;3.40;;;24.60;48.80;;;;;;6128722;23;20394;-78
2023/05/07 12:51:53;;;;;;;3.43;2.60;;;24.50;49.70;;;;;;6154551;23;20355;-79